Acoustic Explorer — NS8801 — position and weather

sailwx.info

Track history (hours):
 
Tides and Currents Weather Stations Pressure Air Temp Water Temp Dewpoint Dewpoint Depression Visibility Wind Speed Wind Dir Waves Ship Positions

Acoustic Explorer

Last reported at 2017-Oct-19 04:27 UTC. Time now 2017-Oct-19 23:41 UTC.
Position N 33°01' W 118°33'.

Length 41 m; draft 3.2 m.

Type: Military. MMSI: 338070397.

Date/timePositionNaut miles runAvg speedWind from/ knotsBaromVisibWave heightAir tempDewpointWater temp
2017-Oct-19 04:27N 33°01' W 118°33'0 0.0
2017-Oct-19 00:57N 33°01' W 118°33'0 0.0
2017-Oct-18 23:27N 33°01' W 118°33'3 7.1
2017-Oct-18 23:01N 33°00' W 118°30'1 1.3
2017-Oct-18 22:28N 32°60' W 118°29'4 0.3
2017-Oct-18 09:59N 33°00' W 118°33'0 0.0
2017-Oct-18 09:29N 33°01' W 118°33'0 0.0
2017-Oct-17 20:54N 33°00' W 118°33'3 8.5
2017-Oct-17 20:30N 32°60' W 118°29'1 0.9
2017-Oct-17 19:57N 32°59' W 118°29'0 0.4
2017-Oct-17 19:30N 32°59' W 118°28'0 0.9
2017-Oct-17 18:59N 32°59' W 118°28'1 0.4
2017-Oct-17 17:12N 32°59' W 118°28'0 0.8
2017-Oct-17 16:58N 32°59' W 118°28'0 0.4
2017-Oct-17 16:30N 32°59' W 118°28'4 2.2
2017-Oct-17 14:31N 33°00' W 118°33'0 0.0
2017-Oct-17 14:25N 33°00' W 118°33'35 2.6
2017-Oct-17 01:10N 32°46' W 117°55'2 9.8
2017-Oct-17 00:57N 32°45' W 117°53'5 9.7
2017-Oct-17 00:23N 32°44' W 117°47'4 9.8
2017-Oct-17 00:00N 32°43' W 117°42'5 9.7
2017-Oct-16 23:30N 32°42' W 117°37'5 9.5
2017-Oct-16 23:01N 32°41' W 117°31'5 9.4
2017-Oct-16 22:30N 32°40' W 117°26'10 0.4
2017-Oct-15 18:07N 32°42' W 117°14'0 0.0
2017-Oct-15 17:55N 32°42' W 117°14'0 0.0
2017-Oct-15 17:28N 32°42' W 117°14'0 0.0
2017-Oct-15 16:58N 32°42' W 117°14'0 0.0
2017-Oct-15 16:28N 32°42' W 117°14'0 0.0
2017-Oct-15 15:58N 32°42' W 117°14'0 0.0
2017-Oct-15 15:28N 32°42' W 117°14'0 0.0
2017-Oct-15 14:55N 32°42' W 117°14'0 0.0
2017-Oct-15 13:58N 32°42' W 117°14'0 0.0
2017-Oct-15 13:28N 32°42' W 117°14'0 0.0
2017-Oct-15 12:58N 32°42' W 117°14'0 0.0
2017-Oct-15 12:25N 32°42' W 117°14'0 0.0
2017-Oct-15 11:58N 32°42' W 117°14'0 0.0
2017-Oct-15 11:28N 32°42' W 117°14'0 0.0
2017-Oct-15 10:55N 32°42' W 117°14'0 0.0
2017-Oct-15 10:28N 32°42' W 117°14'0 0.0
2017-Oct-15 09:58N 32°42' W 117°14'0 0.0
2017-Oct-15 09:28N 32°42' W 117°14'0 0.0
2017-Oct-15 08:58N 32°42' W 117°14'0 0.0
2017-Oct-15 08:28N 32°42' W 117°14'0 0.0
2017-Oct-15 07:58N 32°42' W 117°14'0 0.0
2017-Oct-15 07:28N 32°42' W 117°14'0 0.0
2017-Oct-15 06:58N 32°42' W 117°14'0 0.0
2017-Oct-15 06:28N 32°42' W 117°14'0 0.0
2017-Oct-15 05:58N 32°42' W 117°14'0 0.0
2017-Oct-15 05:28N 32°42' W 117°14'0 0.0
2017-Oct-15 04:58N 32°42' W 117°14'0 0.0
2017-Oct-15 04:28N 32°42' W 117°14'0 0.0
2017-Oct-15 03:55N 32°42' W 117°14'0 0.0
2017-Oct-15 03:28N 32°42' W 117°14'0 0.0
2017-Oct-15 02:58N 32°42' W 117°14'0 0.0
2017-Oct-15 02:28N 32°42' W 117°14'0 0.0
2017-Oct-15 01:58N 32°42' W 117°14'0 0.0
2017-Oct-15 01:25N 32°42' W 117°14'0 0.0
2017-Oct-15 00:58N 32°42' W 117°14'0 0.0
2017-Oct-15 00:28N 32°42' W 117°14'0 0.0
2017-Oct-14 23:58N 32°42' W 117°14'0 0.0
2017-Oct-14 23:28N 32°42' W 117°14'0 0.0
2017-Oct-14 22:58N 32°42' W 117°14'0 0.0
2017-Oct-14 22:28N 32°42' W 117°14'0 0.0
2017-Oct-14 21:58N 32°42' W 117°14'0 0.0
2017-Oct-14 21:28N 32°42' W 117°14'0 0.0
2017-Oct-14 20:58N 32°42' W 117°14'0 0.0
2017-Oct-14 20:28N 32°42' W 117°14'0 0.0
2017-Oct-14 19:58N 32°42' W 117°14'0 0.0
2017-Oct-14 19:28N 32°42' W 117°14'0 0.0
2017-Oct-14 18:55N 32°42' W 117°14'0 0.0
2017-Oct-14 18:28N 32°42' W 117°14'0 0.0
2017-Oct-14 17:58N 32°42' W 117°14'0 0.0
2017-Oct-14 17:28N 32°42' W 117°14'0 0.0
2017-Oct-14 16:55N 32°42' W 117°14'0 0.0
2017-Oct-14 16:28N 32°42' W 117°14'0 0.0
2017-Oct-14 15:58N 32°42' W 117°14'0 0.0
2017-Oct-14 15:25N 32°42' W 117°14'0 0.0
2017-Oct-14 14:40N 32°42' W 117°14'0 0.0
2017-Oct-14 14:28N 32°42' W 117°14'0 0.0
2017-Oct-14 13:43N 32°42' W 117°14'0 0.0
2017-Oct-14 13:25N 32°42' W 117°14'0 0.0
2017-Oct-14 12:55N 32°42' W 117°14'0 0.0
2017-Oct-14 12:28N 32°42' W 117°14'0 0.0
2017-Oct-14 11:58N 32°42' W 117°14'0 0.0
2017-Oct-14 11:07N 32°42' W 117°14'0 0.0
2017-Oct-14 10:55N 32°42' W 117°14'0 0.0
2017-Oct-14 10:25N 32°42' W 117°14'0 0.0
2017-Oct-14 09:49N 32°42' W 117°14'0 0.0
2017-Oct-14 09:25N 32°42' W 117°14'0 0.0
2017-Oct-14 08:55N 32°42' W 117°14'0 0.0
2017-Oct-14 08:25N 32°42' W 117°14'0 0.0
2017-Oct-14 07:49N 32°42' W 117°14'0 0.0
2017-Oct-14 07:22N 32°42' W 117°14'0 0.0
2017-Oct-14 06:55N 32°42' W 117°14'0 0.0
2017-Oct-14 06:25N 32°42' W 117°14'0 0.0
2017-Oct-14 05:55N 32°42' W 117°14'0 0.0
2017-Oct-14 05:25N 32°42' W 117°14'0 0.0
2017-Oct-14 04:49N 32°42' W 117°14'0 0.0
2017-Oct-14 04:25N 32°42' W 117°14'0 0.0
2017-Oct-14 03:58N 32°42' W 117°14'0 0.0
2017-Oct-14 03:25N 32°42' W 117°14'0 0.0
2017-Oct-14 02:58N 32°42' W 117°14'0 0.0
2017-Oct-14 02:28N 32°42' W 117°14'0 0.0
2017-Oct-14 01:58N 32°42' W 117°14'0 0.0
2017-Oct-14 01:25N 32°42' W 117°14'0 0.0
2017-Oct-14 00:55N 32°42' W 117°14'0 0.0
2017-Oct-14 00:25N 32°42' W 117°14'0 0.0
2017-Oct-13 23:43N 32°42' W 117°14'0 0.0
2017-Oct-13 23:28N 32°42' W 117°14'0 0.0
2017-Oct-13 22:55N 32°42' W 117°14'0 0.0
2017-Oct-13 22:25N 32°42' W 117°14'0 0.0
2017-Oct-13 21:55N 32°42' W 117°14'0 0.0
2017-Oct-13 21:25N 32°42' W 117°14'0 0.0
2017-Oct-13 20:49N 32°42' W 117°14'0 0.0
2017-Oct-13 20:19N 32°42' W 117°14'0 0.0
2017-Oct-13 19:49N 32°42' W 117°14'0 0.0
2017-Oct-13 19:25N 32°42' W 117°14'0 0.0
2017-Oct-13 18:55N 32°42' W 117°14'0 0.0
2017-Oct-13 18:28N 32°42' W 117°14'0 0.0
2017-Oct-13 17:58N 32°42' W 117°14'0 0.0
2017-Oct-13 17:28N 32°42' W 117°14'0 0.0
2017-Oct-13 16:49N 32°42' W 117°14'0 0.0
2017-Oct-13 16:25N 32°42' W 117°14'0 0.0
2017-Oct-13 15:58N 32°42' W 117°14'0 0.0
2017-Oct-13 15:28N 32°42' W 117°14'0 0.0
2017-Oct-13 14:58N 32°42' W 117°14'0 0.0
2017-Oct-13 14:25N 32°42' W 117°14'0 0.0
2017-Oct-13 13:55N 32°42' W 117°14'0 0.0
2017-Oct-13 13:25N 32°42' W 117°14'0 0.0
2017-Oct-13 12:55N 32°42' W 117°14'0 0.0
2017-Oct-13 12:28N 32°42' W 117°14'0 0.0
2017-Oct-13 11:58N 32°42' W 117°14'0 0.0
2017-Oct-13 11:28N 32°42' W 117°14'0 0.0
2017-Oct-13 10:58N 32°42' W 117°14'0 0.0
2017-Oct-13 10:19N 32°42' W 117°14'0 0.0
2017-Oct-13 09:55N 32°42' W 117°14'0 0.0
2017-Oct-13 09:25N 32°42' W 117°14'0 0.0
2017-Oct-13 08:55N 32°42' W 117°14'0 0.0
2017-Oct-13 08:28N 32°42' W 117°14'0 0.0
2017-Oct-13 07:55N 32°42' W 117°14'0 0.0
2017-Oct-13 07:19N 32°42' W 117°14'0 0.0
2017-Oct-13 06:55N 32°42' W 117°14'0 0.0
2017-Oct-13 06:25N 32°42' W 117°14'0 0.0
2017-Oct-13 05:55N 32°42' W 117°14'0 0.0
2017-Oct-13 05:25N 32°42' W 117°14'0 0.0
2017-Oct-13 04:58N 32°42' W 117°14'0 0.0
2017-Oct-13 04:25N 32°42' W 117°14'0 0.0
2017-Oct-13 03:58N 32°42' W 117°14'0 0.0
2017-Oct-13 03:25N 32°42' W 117°14'0 0.0
2017-Oct-13 02:55N 32°42' W 117°14'0 0.0
2017-Oct-13 02:25N 32°42' W 117°14'0 0.0
2017-Oct-13 01:58N 32°42' W 117°14'0 0.0
2017-Oct-13 01:25N 32°42' W 117°14'0 0.0
2017-Oct-13 00:58N 32°42' W 117°14'0 0.0
2017-Oct-13 00:25N 32°42' W 117°14'0 0.0
2017-Oct-12 23:55N 32°42' W 117°14'0 0.0
2017-Oct-12 23:28N 32°42' W 117°14'0 0.0
2017-Oct-12 22:55N 32°42' W 117°14'0 0.0
2017-Oct-12 22:25N 32°42' W 117°14'0 0.0
2017-Oct-12 21:55N 32°42' W 117°14'0 0.0
2017-Oct-12 21:25N 32°42' W 117°14'0 0.0
2017-Oct-12 20:55N 32°42' W 117°14'0 0.0
2017-Oct-12 20:25N 32°42' W 117°14'0 0.0
2017-Oct-12 19:58N 32°42' W 117°14'0 0.0
2017-Oct-12 19:13N 32°42' W 117°14'0 0.0
2017-Oct-12 18:58N 32°42' W 117°14'0 0.0
2017-Oct-12 18:28N 32°42' W 117°14'0 0.0
2017-Oct-12 17:55N 32°42' W 117°14'0 0.0
2017-Oct-12 17:25N 32°42' W 117°14'0 0.0
2017-Oct-12 16:55N 32°42' W 117°14'2 4.8
2017-Oct-12 16:30N 32°40' W 117°14'3 5.6
2017-Oct-12 15:56N 32°37' W 117°13'2 3.1
2017-Oct-12 15:22N 32°39' W 117°13'1 2.4
2017-Oct-12 14:59N 32°40' W 117°14'3 4.9
2017-Oct-12 14:28N 32°42' W 117°14'0 0.0
2017-Oct-12 13:58N 32°42' W 117°14'0 0.0
2017-Oct-12 13:25N 32°42' W 117°14'0 0.0
2017-Oct-12 12:58N 32°42' W 117°14'0 0.0
2017-Oct-12 12:28N 32°42' W 117°14'0 0.0
2017-Oct-12 11:52N 32°42' W 117°14'0 0.0
2017-Oct-12 11:28N 32°42' W 117°14'0 0.0
2017-Oct-12 10:58N 32°42' W 117°14'0 0.0
2017-Oct-12 10:28N 32°42' W 117°14'0 0.0
2017-Oct-12 09:58N 32°42' W 117°14'0 0.0
2017-Oct-12 09:28N 32°42' W 117°14'0 0.0
2017-Oct-12 08:52N 32°42' W 117°14'0 0.0
2017-Oct-12 08:16N 32°42' W 117°14'0 0.0
2017-Oct-12 07:58N 32°42' W 117°14'0 0.0
2017-Oct-12 07:28N 32°42' W 117°14'0 0.0
2017-Oct-12 06:58N 32°42' W 117°14'0 0.0
2017-Oct-12 06:28N 32°42' W 117°14'0 0.0
2017-Oct-12 05:58N 32°42' W 117°14'0 0.0
2017-Oct-12 05:25N 32°42' W 117°14'0 0.0
2017-Oct-12 04:58N 32°42' W 117°14'0 0.0
2017-Oct-12 04:28N 32°42' W 117°14'0 0.0
2017-Oct-12 03:58N 32°42' W 117°14'0 0.0
2017-Oct-12 03:28N 32°42' W 117°14'0 0.0
2017-Oct-12 02:58N 32°42' W 117°14'0 0.0
2017-Oct-12 02:28N 32°42' W 117°14'0 0.0
2017-Oct-12 01:52N 32°42' W 117°14'0 0.0
2017-Oct-12 01:04N 32°42' W 117°14'0 0.0
2017-Oct-12 00:46N 32°42' W 117°14'0 0.0
2017-Oct-12 00:28N 32°42' W 117°14'0 0.0
2017-Oct-11 23:58N 32°42' W 117°14'0 0.0
2017-Oct-11 23:28N 32°42' W 117°14'0 0.0
2017-Oct-11 22:58N 32°42' W 117°14'0 0.0
2017-Oct-11 22:22N 32°42' W 117°14'0 0.0
2017-Oct-11 21:58N 32°42' W 117°14'0 0.0
2017-Oct-11 21:28N 32°42' W 117°14'0 0.0
2017-Oct-11 20:58N 32°42' W 117°14'0 0.0
2017-Oct-11 20:28N 32°42' W 117°14'0 0.0
2017-Oct-11 19:58N 32°42' W 117°14'0 0.0
2017-Oct-11 19:28N 32°42' W 117°14'0 0.0
2017-Oct-11 18:52N 32°42' W 117°14'0 0.0
2017-Oct-11 18:28N 32°42' W 117°14'0 0.0
2017-Oct-11 17:58N 32°42' W 117°14'0 0.0
2017-Oct-11 17:28N 32°42' W 117°14'0 0.0
2017-Oct-11 16:58N 32°42' W 117°14'0 0.0
2017-Oct-10 19:44N 32°42' W 117°14'0 0.0
2017-Oct-10 19:29N 32°42' W 117°14'0 0.0
2017-Oct-10 17:13N 32°42' W 117°14'0 0.0
2017-Oct-10 16:55N 32°42' W 117°14'0 0.0
2017-Oct-10 15:22N 32°42' W 117°14'0 0.0
2017-Oct-10 14:52N 32°42' W 117°14'0 0.0
2017-Oct-10 13:55N 32°42' W 117°14'0 0.0
2017-Oct-10 13:28N 32°42' W 117°14'0 0.0
2017-Oct-10 12:58N 32°42' W 117°14'0 0.0
2017-Oct-10 12:28N 32°42' W 117°14'0 0.0
2017-Oct-10 11:58N 32°42' W 117°14'0 0.0
2017-Oct-10 11:28N 32°42' W 117°14'0 0.0
2017-Oct-10 10:58N 32°42' W 117°14'0 0.0
2017-Oct-10 10:16N 32°42' W 117°14'0 0.0
2017-Oct-10 09:46N 32°42' W 117°14'0 0.0
2017-Oct-10 09:28N 32°42' W 117°14'0 0.0
2017-Oct-10 08:58N 32°42' W 117°14'0 0.0
2017-Oct-10 08:25N 32°42' W 117°14'0 0.0
2017-Oct-10 07:58N 32°42' W 117°14'0 0.0
2017-Oct-10 07:22N 32°42' W 117°14'0 0.0
2017-Oct-10 06:58N 32°42' W 117°14'  
Track history (hours):
 
Tides and Currents Weather Stations Pressure Air Temp Water Temp Dewpoint Dewpoint Depression Visibility Wind Speed Wind Dir Waves Ship Positions

Acoustic Explorer

Last reported at 2017-Oct-19 04:27 UTC. Time now 2017-Oct-19 23:41 UTC.
Position N 33°01' W 118°33'.

Length 41 m; draft 3.2 m.

Type: Military. MMSI: 338070397.

Date/timePositionNaut miles runAvg speedWind from/ knotsBaromVisibWave heightAir tempDewpointWater temp
2017-Oct-19 04:27N 33°01' W 118°33'0 0.0
2017-Oct-19 00:57N 33°01' W 118°33'0 0.0
2017-Oct-18 23:27N 33°01' W 118°33'3 7.1
2017-Oct-18 23:01N 33°00' W 118°30'1 1.3
2017-Oct-18 22:28N 32°60' W 118°29'4 0.3
2017-Oct-18 09:59N 33°00' W 118°33'0 0.0
2017-Oct-18 09:29N 33°01' W 118°33'0 0.0
2017-Oct-17 20:54N 33°00' W 118°33'3 8.5
2017-Oct-17 20:30N 32°60' W 118°29'1 0.9
2017-Oct-17 19:57N 32°59' W 118°29'0 0.4
2017-Oct-17 19:30N 32°59' W 118°28'0 0.9
2017-Oct-17 18:59N 32°59' W 118°28'1 0.4
2017-Oct-17 17:12N 32°59' W 118°28'0 0.8
2017-Oct-17 16:58N 32°59' W 118°28'0 0.4
2017-Oct-17 16:30N 32°59' W 118°28'4 2.2
2017-Oct-17 14:31N 33°00' W 118°33'0 0.0
2017-Oct-17 14:25N 33°00' W 118°33'35 2.6
2017-Oct-17 01:10N 32°46' W 117°55'2 9.8
2017-Oct-17 00:57N 32°45' W 117°53'5 9.7
2017-Oct-17 00:23N 32°44' W 117°47'4 9.8
2017-Oct-17 00:00N 32°43' W 117°42'5 9.7
2017-Oct-16 23:30N 32°42' W 117°37'5 9.5
2017-Oct-16 23:01N 32°41' W 117°31'5 9.4
2017-Oct-16 22:30N 32°40' W 117°26'10 0.4
2017-Oct-15 18:07N 32°42' W 117°14'0 0.0
2017-Oct-15 17:55N 32°42' W 117°14'0 0.0
2017-Oct-15 17:28N 32°42' W 117°14'0 0.0
2017-Oct-15 16:58N 32°42' W 117°14'0 0.0
2017-Oct-15 16:28N 32°42' W 117°14'0 0.0
2017-Oct-15 15:58N 32°42' W 117°14'0 0.0
2017-Oct-15 15:28N 32°42' W 117°14'0 0.0
2017-Oct-15 14:55N 32°42' W 117°14'0 0.0
2017-Oct-15 13:58N 32°42' W 117°14'0 0.0
2017-Oct-15 13:28N 32°42' W 117°14'0 0.0
2017-Oct-15 12:58N 32°42' W 117°14'0 0.0
2017-Oct-15 12:25N 32°42' W 117°14'0 0.0
2017-Oct-15 11:58N 32°42' W 117°14'0 0.0
2017-Oct-15 11:28N 32°42' W 117°14'0 0.0
2017-Oct-15 10:55N 32°42' W 117°14'0 0.0
2017-Oct-15 10:28N 32°42' W 117°14'0 0.0
2017-Oct-15 09:58N 32°42' W 117°14'0 0.0
2017-Oct-15 09:28N 32°42' W 117°14'0 0.0
2017-Oct-15 08:58N 32°42' W 117°14'0 0.0
2017-Oct-15 08:28N 32°42' W 117°14'0 0.0
2017-Oct-15 07:58N 32°42' W 117°14'0 0.0
2017-Oct-15 07:28N 32°42' W 117°14'0 0.0
2017-Oct-15 06:58N 32°42' W 117°14'0 0.0
2017-Oct-15 06:28N 32°42' W 117°14'0 0.0
2017-Oct-15 05:58N 32°42' W 117°14'0 0.0
2017-Oct-15 05:28N 32°42' W 117°14'0 0.0
2017-Oct-15 04:58N 32°42' W 117°14'0 0.0
2017-Oct-15 04:28N 32°42' W 117°14'0 0.0
2017-Oct-15 03:55N 32°42' W 117°14'0 0.0
2017-Oct-15 03:28N 32°42' W 117°14'0 0.0
2017-Oct-15 02:58N 32°42' W 117°14'0 0.0
2017-Oct-15 02:28N 32°42' W 117°14'0 0.0
2017-Oct-15 01:58N 32°42' W 117°14'0 0.0
2017-Oct-15 01:25N 32°42' W 117°14'0 0.0
2017-Oct-15 00:58N 32°42' W 117°14'0 0.0
2017-Oct-15 00:28N 32°42' W 117°14'0 0.0
2017-Oct-14 23:58N 32°42' W 117°14'0 0.0
2017-Oct-14 23:28N 32°42' W 117°14'0 0.0
2017-Oct-14 22:58N 32°42' W 117°14'0 0.0
2017-Oct-14 22:28N 32°42' W 117°14'0 0.0
2017-Oct-14 21:58N 32°42' W 117°14'0 0.0
2017-Oct-14 21:28N 32°42' W 117°14'0 0.0
2017-Oct-14 20:58N 32°42' W 117°14'0 0.0
2017-Oct-14 20:28N 32°42' W 117°14'0 0.0
2017-Oct-14 19:58N 32°42' W 117°14'0 0.0
2017-Oct-14 19:28N 32°42' W 117°14'0 0.0
2017-Oct-14 18:55N 32°42' W 117°14'0 0.0
2017-Oct-14 18:28N 32°42' W 117°14'0 0.0
2017-Oct-14 17:58N 32°42' W 117°14'0 0.0
2017-Oct-14 17:28N 32°42' W 117°14'0 0.0
2017-Oct-14 16:55N 32°42' W 117°14'0 0.0
2017-Oct-14 16:28N 32°42' W 117°14'0 0.0
2017-Oct-14 15:58N 32°42' W 117°14'0 0.0
2017-Oct-14 15:25N 32°42' W 117°14'0 0.0
2017-Oct-14 14:40N 32°42' W 117°14'0 0.0
2017-Oct-14 14:28N 32°42' W 117°14'0 0.0
2017-Oct-14 13:43N 32°42' W 117°14'0 0.0
2017-Oct-14 13:25N 32°42' W 117°14'0 0.0
2017-Oct-14 12:55N 32°42' W 117°14'0 0.0
2017-Oct-14 12:28N 32°42' W 117°14'0 0.0
2017-Oct-14 11:58N 32°42' W 117°14'0 0.0
2017-Oct-14 11:07N 32°42' W 117°14'0 0.0
2017-Oct-14 10:55N 32°42' W 117°14'0 0.0
2017-Oct-14 10:25N 32°42' W 117°14'0 0.0
2017-Oct-14 09:49N 32°42' W 117°14'0 0.0
2017-Oct-14 09:25N 32°42' W 117°14'0 0.0
2017-Oct-14 08:55N 32°42' W 117°14'0 0.0
2017-Oct-14 08:25N 32°42' W 117°14'0 0.0
2017-Oct-14 07:49N 32°42' W 117°14'0 0.0
2017-Oct-14 07:22N 32°42' W 117°14'0 0.0
2017-Oct-14 06:55N 32°42' W 117°14'0 0.0
2017-Oct-14 06:25N 32°42' W 117°14'0 0.0
2017-Oct-14 05:55N 32°42' W 117°14'0 0.0
2017-Oct-14 05:25N 32°42' W 117°14'0 0.0
2017-Oct-14 04:49N 32°42' W 117°14'0 0.0
2017-Oct-14 04:25N 32°42' W 117°14'0 0.0
2017-Oct-14 03:58N 32°42' W 117°14'0 0.0
2017-Oct-14 03:25N 32°42' W 117°14'0 0.0
2017-Oct-14 02:58N 32°42' W 117°14'0 0.0
2017-Oct-14 02:28N 32°42' W 117°14'0 0.0
2017-Oct-14 01:58N 32°42' W 117°14'0 0.0
2017-Oct-14 01:25N 32°42' W 117°14'0 0.0
2017-Oct-14 00:55N 32°42' W 117°14'0 0.0
2017-Oct-14 00:25N 32°42' W 117°14'0 0.0
2017-Oct-13 23:43N 32°42' W 117°14'0 0.0
2017-Oct-13 23:28N 32°42' W 117°14'0 0.0
2017-Oct-13 22:55N 32°42' W 117°14'0 0.0
2017-Oct-13 22:25N 32°42' W 117°14'0 0.0
2017-Oct-13 21:55N 32°42' W 117°14'0 0.0
2017-Oct-13 21:25N 32°42' W 117°14'0 0.0
2017-Oct-13 20:49N 32°42' W 117°14'0 0.0
2017-Oct-13 20:19N 32°42' W 117°14'0 0.0
2017-Oct-13 19:49N 32°42' W 117°14'0 0.0
2017-Oct-13 19:25N 32°42' W 117°14'0 0.0
2017-Oct-13 18:55N 32°42' W 117°14'0 0.0
2017-Oct-13 18:28N 32°42' W 117°14'0 0.0
2017-Oct-13 17:58N 32°42' W 117°14'0 0.0
2017-Oct-13 17:28N 32°42' W 117°14'0 0.0
2017-Oct-13 16:49N 32°42' W 117°14'0 0.0
2017-Oct-13 16:25N 32°42' W 117°14'0 0.0
2017-Oct-13 15:58N 32°42' W 117°14'0 0.0
2017-Oct-13 15:28N 32°42' W 117°14'0 0.0
2017-Oct-13 14:58N 32°42' W 117°14'0 0.0
2017-Oct-13 14:25N 32°42' W 117°14'0 0.0
2017-Oct-13 13:55N 32°42' W 117°14'0 0.0
2017-Oct-13 13:25N 32°42' W 117°14'0 0.0
2017-Oct-13 12:55N 32°42' W 117°14'0 0.0
2017-Oct-13 12:28N 32°42' W 117°14'0 0.0
2017-Oct-13 11:58N 32°42' W 117°14'0 0.0
2017-Oct-13 11:28N 32°42' W 117°14'0 0.0
2017-Oct-13 10:58N 32°42' W 117°14'0 0.0
2017-Oct-13 10:19N 32°42' W 117°14'0 0.0
2017-Oct-13 09:55N 32°42' W 117°14'0 0.0
2017-Oct-13 09:25N 32°42' W 117°14'0 0.0
2017-Oct-13 08:55N 32°42' W 117°14'0 0.0
2017-Oct-13 08:28N 32°42' W 117°14'0 0.0
2017-Oct-13 07:55N 32°42' W 117°14'0 0.0
2017-Oct-13 07:19N 32°42' W 117°14'0 0.0
2017-Oct-13 06:55N 32°42' W 117°14'0 0.0
2017-Oct-13 06:25N 32°42' W 117°14'0 0.0
2017-Oct-13 05:55N 32°42' W 117°14'0 0.0
2017-Oct-13 05:25N 32°42' W 117°14'0 0.0
2017-Oct-13 04:58N 32°42' W 117°14'0 0.0
2017-Oct-13 04:25N 32°42' W 117°14'0 0.0
2017-Oct-13 03:58N 32°42' W 117°14'0 0.0
2017-Oct-13 03:25N 32°42' W 117°14'0 0.0
2017-Oct-13 02:55N 32°42' W 117°14'0 0.0
2017-Oct-13 02:25N 32°42' W 117°14'0 0.0
2017-Oct-13 01:58N 32°42' W 117°14'0 0.0
2017-Oct-13 01:25N 32°42' W 117°14'0 0.0
2017-Oct-13 00:58N 32°42' W 117°14'0 0.0
2017-Oct-13 00:25N 32°42' W 117°14'0 0.0
2017-Oct-12 23:55N 32°42' W 117°14'0 0.0
2017-Oct-12 23:28N 32°42' W 117°14'0 0.0
2017-Oct-12 22:55N 32°42' W 117°14'0 0.0
2017-Oct-12 22:25N 32°42' W 117°14'0 0.0
2017-Oct-12 21:55N 32°42' W 117°14'0 0.0
2017-Oct-12 21:25N 32°42' W 117°14'0 0.0
2017-Oct-12 20:55N 32°42' W 117°14'0 0.0
2017-Oct-12 20:25N 32°42' W 117°14'0 0.0
2017-Oct-12 19:58N 32°42' W 117°14'0 0.0
2017-Oct-12 19:13N 32°42' W 117°14'0 0.0
2017-Oct-12 18:58N 32°42' W 117°14'0 0.0
2017-Oct-12 18:28N 32°42' W 117°14'0 0.0
2017-Oct-12 17:55N 32°42' W 117°14'0 0.0
2017-Oct-12 17:25N 32°42' W 117°14'0 0.0
2017-Oct-12 16:55N 32°42' W 117°14'2 4.8
2017-Oct-12 16:30N 32°40' W 117°14'3 5.6
2017-Oct-12 15:56N 32°37' W 117°13'2 3.1
2017-Oct-12 15:22N 32°39' W 117°13'1 2.4
2017-Oct-12 14:59N 32°40' W 117°14'3 4.9
2017-Oct-12 14:28N 32°42' W 117°14'0 0.0
2017-Oct-12 13:58N 32°42' W 117°14'0 0.0
2017-Oct-12 13:25N 32°42' W 117°14'0 0.0
2017-Oct-12 12:58N 32°42' W 117°14'0 0.0
2017-Oct-12 12:28N 32°42' W 117°14'0 0.0
2017-Oct-12 11:52N 32°42' W 117°14'0 0.0
2017-Oct-12 11:28N 32°42' W 117°14'0 0.0
2017-Oct-12 10:58N 32°42' W 117°14'0 0.0
2017-Oct-12 10:28N 32°42' W 117°14'0 0.0
2017-Oct-12 09:58N 32°42' W 117°14'0 0.0
2017-Oct-12 09:28N 32°42' W 117°14'0 0.0
2017-Oct-12 08:52N 32°42' W 117°14'0 0.0
2017-Oct-12 08:16N 32°42' W 117°14'0 0.0
2017-Oct-12 07:58N 32°42' W 117°14'0 0.0
2017-Oct-12 07:28N 32°42' W 117°14'0 0.0
2017-Oct-12 06:58N 32°42' W 117°14'0 0.0
2017-Oct-12 06:28N 32°42' W 117°14'0 0.0
2017-Oct-12 05:58N 32°42' W 117°14'0 0.0
2017-Oct-12 05:25N 32°42' W 117°14'0 0.0
2017-Oct-12 04:58N 32°42' W 117°14'0 0.0
2017-Oct-12 04:28N 32°42' W 117°14'0 0.0
2017-Oct-12 03:58N 32°42' W 117°14'0 0.0
2017-Oct-12 03:28N 32°42' W 117°14'0 0.0
2017-Oct-12 02:58N 32°42' W 117°14'0 0.0
2017-Oct-12 02:28N 32°42' W 117°14'0 0.0
2017-Oct-12 01:52N 32°42' W 117°14'0 0.0
2017-Oct-12 01:04N 32°42' W 117°14'0 0.0
2017-Oct-12 00:46N 32°42' W 117°14'0 0.0
2017-Oct-12 00:28N 32°42' W 117°14'0 0.0
2017-Oct-11 23:58N 32°42' W 117°14'0 0.0
2017-Oct-11 23:28N 32°42' W 117°14'0 0.0
2017-Oct-11 22:58N 32°42' W 117°14'0 0.0
2017-Oct-11 22:22N 32°42' W 117°14'0 0.0
2017-Oct-11 21:58N 32°42' W 117°14'0 0.0
2017-Oct-11 21:28N 32°42' W 117°14'0 0.0
2017-Oct-11 20:58N 32°42' W 117°14'0 0.0
2017-Oct-11 20:28N 32°42' W 117°14'0 0.0
2017-Oct-11 19:58N 32°42' W 117°14'0 0.0
2017-Oct-11 19:28N 32°42' W 117°14'0 0.0
2017-Oct-11 18:52N 32°42' W 117°14'0 0.0
2017-Oct-11 18:28N 32°42' W 117°14'0 0.0
2017-Oct-11 17:58N 32°42' W 117°14'0 0.0
2017-Oct-11 17:28N 32°42' W 117°14'0 0.0
2017-Oct-11 16:58N 32°42' W 117°14'0 0.0
2017-Oct-10 19:44N 32°42' W 117°14'0 0.0
2017-Oct-10 19:29N 32°42' W 117°14'0 0.0
2017-Oct-10 17:13N 32°42' W 117°14'0 0.0
2017-Oct-10 16:55N 32°42' W 117°14'0 0.0
2017-Oct-10 15:22N 32°42' W 117°14'0 0.0
2017-Oct-10 14:52N 32°42' W 117°14'0 0.0
2017-Oct-10 13:55N 32°42' W 117°14'0 0.0
2017-Oct-10 13:28N 32°42' W 117°14'0 0.0
2017-Oct-10 12:58N 32°42' W 117°14'0 0.0
2017-Oct-10 12:28N 32°42' W 117°14'0 0.0
2017-Oct-10 11:58N 32°42' W 117°14'0 0.0
2017-Oct-10 11:28N 32°42' W 117°14'0 0.0
2017-Oct-10 10:58N 32°42' W 117°14'0 0.0
2017-Oct-10 10:16N 32°42' W 117°14'0 0.0
2017-Oct-10 09:46N 32°42' W 117°14'0 0.0
2017-Oct-10 09:28N 32°42' W 117°14'0 0.0
2017-Oct-10 08:58N 32°42' W 117°14'0 0.0
2017-Oct-10 08:25N 32°42' W 117°14'0 0.0
2017-Oct-10 07:58N 32°42' W 117°14'0 0.0
2017-Oct-10 07:22N 32°42' W 117°14'0 0.0
2017-Oct-10 06:58N 32°42' W 117°14'  

Dump ship's entire track history